createdAt,value
2018-08-20T00:00:45.536Z,10.13
2018-08-20T00:03:13.765Z,9.33
2018-08-20T00:07:06.509Z,9.80
2018-08-20T00:09:40.066Z,9.87
2018-08-20T00:12:09.338Z,10.13
2018-08-20T00:14:37.784Z,10.50
2018-08-20T00:17:05.984Z,11.80
2018-08-20T00:19:34.243Z,11.63
2018-08-20T00:22:02.476Z,10.90
2018-08-20T00:24:30.632Z,10.50
2018-08-20T00:27:00.126Z,10.70
2018-08-20T00:29:28.306Z,12.20
2018-08-20T00:31:56.505Z,10.90
2018-08-20T00:34:24.671Z,11.67
2018-08-20T00:36:52.814Z,11.73
2018-08-20T00:39:21.006Z,11.60
2018-08-20T00:41:49.155Z,9.63
2018-08-20T00:44:17.963Z,11.40
2018-08-20T00:46:46.740Z,11.60
2018-08-20T00:49:16.170Z,10.57
2018-08-20T00:51:44.476Z,11.10
2018-08-20T00:54:12.701Z,10.10
2018-08-20T00:56:40.875Z,10.83
2018-08-20T00:59:09.185Z,10.43
2018-08-20T01:01:37.442Z,10.70
2018-08-20T01:04:05.599Z,11.17
2018-08-20T01:06:33.778Z,11.80
2018-08-20T01:09:01.914Z,11.33
2018-08-20T01:11:30.128Z,11.13
2018-08-20T01:13:58.294Z,10.90
2018-08-20T01:16:26.548Z,11.13
2018-08-20T01:18:54.756Z,10.73
2018-08-20T01:21:22.934Z,11.77
2018-08-20T01:23:51.115Z,11.70
2018-08-20T01:26:19.265Z,11.80
2018-08-20T01:28:47.451Z,11.23
2018-08-20T01:31:15.623Z,10.07
2018-08-20T01:33:43.823Z,11.17
2018-08-20T01:36:13.082Z,11.23
2018-08-20T01:38:41.280Z,13.17
2018-08-20T01:41:09.446Z,11.47
2018-08-20T01:43:37.626Z,11.60
2018-08-20T01:46:05.794Z,12.30
2018-08-20T01:48:33.986Z,11.13
2018-08-20T01:51:02.288Z,12.50
2018-08-20T01:53:30.707Z,10.90
2018-08-20T01:55:58.892Z,10.80
2018-08-20T01:58:27.072Z,11.00
2018-08-20T02:00:55.251Z,12.37
2018-08-20T02:03:23.414Z,10.97
2018-08-20T02:05:51.575Z,10.47
2018-08-20T02:08:19.746Z,10.27
2018-08-20T02:10:48.069Z,10.90
2018-08-20T02:13:16.309Z,10.30
2018-08-20T02:15:44.471Z,10.90
2018-08-20T02:18:12.648Z,10.40
2018-08-20T02:20:40.839Z,10.20
2018-08-20T02:23:09.024Z,10.50
2018-08-20T02:25:37.295Z,10.60
2018-08-20T02:28:05.864Z,9.50
2018-08-20T02:30:34.043Z,11.57
2018-08-20T02:33:02.198Z,10.20
2018-08-20T02:35:30.400Z,9.80
2018-08-20T02:37:58.578Z,10.93
2018-08-20T02:40:26.826Z,10.70
2018-08-20T02:42:55.031Z,9.97
2018-08-20T02:45:23.200Z,9.70
2018-08-20T02:47:51.367Z,9.80
2018-08-20T02:50:26.142Z,10.30
2018-08-20T02:52:54.339Z,10.30
2018-08-20T02:55:22.520Z,11.13
2018-08-20T02:57:50.664Z,10.90
2018-08-20T03:00:18.917Z,10.93
2018-08-20T03:02:47.180Z,10.60
2018-08-20T03:05:15.431Z,11.17
2018-08-20T03:07:43.613Z,10.67
2018-08-20T03:10:12.889Z,11.03
2018-08-20T03:12:41.585Z,11.57
2018-08-20T03:15:10.600Z,12.50
2018-08-20T03:17:38.744Z,12.67
2018-08-20T03:20:07.257Z,12.17
2018-08-20T03:22:35.584Z,11.60
2018-08-20T03:25:04.299Z,11.50
2018-08-20T03:27:32.481Z,12.27
2018-08-20T03:30:00.789Z,10.93
2018-08-20T03:32:29.024Z,11.23
2018-08-20T03:34:57.187Z,10.53
2018-08-20T03:37:25.389Z,11.87
2018-08-20T03:39:53.575Z,10.20
2018-08-20T03:42:21.714Z,10.03
2018-08-20T03:44:49.921Z,11.37
2018-08-20T03:47:18.199Z,12.30
2018-08-20T03:49:46.461Z,12.70
2018-08-20T03:52:14.605Z,12.43
2018-08-20T03:54:45.759Z,13.17
2018-08-20T03:57:13.911Z,12.77
2018-08-20T03:59:41.839Z,10.60
2018-08-20T04:02:10.077Z,11.83
2018-08-20T04:04:38.055Z,12.40
2018-08-20T04:07:07.271Z,10.47
2018-08-20T04:09:35.876Z,12.53
2018-08-20T04:12:05.403Z,12.23
2018-08-20T04:14:33.611Z,12.80
2018-08-20T04:17:01.793Z,13.43
2018-08-20T04:19:30.315Z,14.13
2018-08-20T04:21:58.612Z,12.10
2018-08-20T04:24:26.856Z,12.90
2018-08-20T04:26:55.119Z,11.60
2018-08-20T04:29:23.403Z,11.17
2018-08-20T04:31:51.631Z,12.13
2018-08-20T04:34:19.856Z,11.33
2018-08-20T04:36:48.119Z,12.20
2018-08-20T04:39:16.351Z,11.70
2018-08-20T04:41:44.563Z,10.93
2018-08-20T04:44:12.838Z,11.33
2018-08-20T04:46:41.075Z,10.73
2018-08-20T04:49:09.247Z,12.43
2018-08-20T04:51:37.427Z,11.50
2018-08-20T04:54:05.772Z,11.20
2018-08-20T04:56:33.988Z,12.20
2018-08-20T04:59:02.180Z,11.33
2018-08-20T05:01:30.540Z,11.53
2018-08-20T05:03:58.562Z,10.50
2018-08-20T05:06:26.735Z,12.30
2018-08-20T05:08:54.890Z,10.30
2018-08-20T05:11:23.099Z,10.90
2018-08-20T05:13:51.366Z,10.20
2018-08-20T05:16:19.537Z,10.73
2018-08-20T05:18:47.820Z,10.20
2018-08-20T05:21:15.951Z,11.40
2018-08-20T05:23:44.181Z,10.60
2018-08-20T05:26:12.452Z,10.53
2018-08-20T05:28:40.722Z,11.87
2018-08-20T05:31:08.987Z,11.27
2018-08-20T05:33:37.276Z,12.23
2018-08-20T05:36:05.528Z,11.27
2018-08-20T05:38:33.723Z,11.93
2018-08-20T05:41:01.980Z,12.80
2018-08-20T05:43:30.266Z,12.10
2018-08-20T05:45:58.537Z,11.90
2018-08-20T05:48:26.794Z,11.67
2018-08-20T05:50:55.048Z,11.13
2018-08-20T05:53:23.274Z,10.37
2018-08-20T05:55:51.595Z,10.63
2018-08-20T05:58:19.806Z,11.40
2018-08-20T06:00:48.032Z,11.87
2018-08-20T06:03:16.317Z,9.33
2018-08-20T06:05:44.306Z,10.67
2018-08-20T06:08:12.648Z,9.43
2018-08-20T06:10:40.928Z,11.53
2018-08-20T06:13:09.155Z,9.77
2018-08-20T06:15:37.426Z,10.00
2018-08-20T06:18:06.045Z,9.37
2018-08-20T06:20:34.359Z,10.53
2018-08-20T06:23:02.655Z,9.50
2018-08-20T06:25:30.997Z,9.40
2018-08-20T06:27:59.200Z,10.07
2018-08-20T06:30:27.386Z,9.27
2018-08-20T06:32:55.524Z,9.30
2018-08-20T06:35:23.679Z,8.80
2018-08-20T06:37:51.852Z,8.93
2018-08-20T06:40:20.031Z,9.10
2018-08-20T06:42:48.236Z,8.23
2018-08-20T06:45:17.215Z,7.53
2018-08-20T06:47:46.232Z,7.70
2018-08-20T06:50:15.080Z,7.90
2018-08-20T06:52:44.099Z,7.43
2018-08-20T06:55:13.282Z,7.73
2018-08-20T06:57:41.735Z,7.17
2018-08-20T07:00:11.067Z,8.07
2018-08-20T07:02:39.337Z,7.10
2018-08-20T07:05:08.120Z,7.10
2018-08-20T07:07:37.607Z,6.50
2018-08-20T07:10:07.486Z,7.17
2018-08-20T07:12:36.014Z,7.13
2018-08-20T07:15:04.675Z,6.80
2018-08-20T07:17:32.684Z,7.20
2018-08-20T07:20:00.796Z,6.53
2018-08-20T07:22:28.988Z,6.37
2018-08-20T07:24:57.204Z,6.10
2018-08-20T07:27:25.695Z,5.83
2018-08-20T07:29:53.897Z,5.60
2018-08-20T07:32:22.251Z,6.20
2018-08-20T07:34:50.486Z,5.50
2018-08-20T07:37:18.696Z,6.07
2018-08-20T07:39:48.018Z,6.10
2018-08-20T07:42:16.244Z,5.70
2018-08-20T07:44:45.129Z,6.40
2018-08-20T07:47:13.353Z,5.97
2018-08-20T07:49:41.567Z,6.27
2018-08-20T07:52:10.732Z,5.33
2018-08-20T07:54:39.773Z,6.00
2018-08-20T07:57:09.271Z,7.27
2018-08-20T07:59:37.652Z,5.77
2018-08-20T08:02:06.456Z,5.20
2018-08-20T08:04:34.698Z,5.90
2018-08-20T08:07:02.924Z,6.30
2018-08-20T08:09:31.143Z,6.00
2018-08-20T08:11:59.385Z,5.90
2018-08-20T08:14:27.648Z,6.00
2018-08-20T08:16:56.676Z,5.80
2018-08-20T08:19:24.883Z,5.90
2018-08-20T08:21:53.097Z,6.10
2018-08-20T08:24:21.311Z,5.80
2018-08-20T08:26:49.588Z,6.63
2018-08-20T08:29:17.828Z,6.33
2018-08-20T08:31:46.039Z,5.87
2018-08-20T08:34:14.271Z,5.70
2018-08-20T08:36:42.578Z,5.90
2018-08-20T08:39:11.606Z,5.57
2018-08-20T08:41:40.041Z,5.47
2018-08-20T08:44:08.696Z,6.13
2018-08-20T08:46:36.942Z,5.37
2018-08-20T08:49:05.455Z,6.23
2018-08-20T08:51:33.757Z,5.30
2018-08-20T08:54:02.025Z,5.23
2018-08-20T08:56:30.295Z,6.07
2018-08-20T08:58:58.544Z,5.43
2018-08-20T09:01:26.763Z,5.13
2018-08-20T09:03:55.055Z,4.77
2018-08-20T09:06:23.333Z,5.80
2018-08-20T09:08:51.531Z,6.10
2018-08-20T09:11:20.048Z,5.67
2018-08-20T09:13:48.308Z,6.27
2018-08-20T09:16:16.513Z,5.50
2018-08-20T09:18:44.696Z,5.70
2018-08-20T09:21:12.605Z,5.13
2018-08-20T09:23:40.840Z,5.80
2018-08-20T09:28:36.247Z,5.17
2018-08-20T09:31:04.498Z,5.50
2018-08-20T09:33:32.736Z,5.97
2018-08-20T09:36:01.010Z,5.90
2018-08-20T09:38:29.269Z,6.40
2018-08-20T09:40:57.500Z,5.87
2018-08-20T09:43:25.705Z,5.80
2018-08-20T09:45:53.916Z,5.00
2018-08-20T09:48:22.111Z,5.20
2018-08-20T09:50:50.335Z,4.90
2018-08-20T09:53:18.613Z,5.27
2018-08-20T09:55:46.897Z,5.40
2018-08-20T09:58:15.107Z,5.00
2018-08-20T10:00:43.362Z,5.17
2018-08-20T10:03:11.589Z,4.80
2018-08-20T10:12:42.663Z,5.30
2018-08-20T10:15:11.031Z,5.03
2018-08-20T10:17:39.248Z,4.70
2018-08-20T10:20:09.449Z,4.87
2018-08-20T10:22:37.673Z,5.37
2018-08-20T10:25:06.365Z,5.33
2018-08-20T10:27:34.644Z,5.33
2018-08-20T10:30:02.922Z,5.23
2018-08-20T10:32:31.850Z,4.70
2018-08-20T10:35:00.325Z,5.37
2018-08-20T10:37:28.556Z,5.27
2018-08-20T10:39:56.500Z,5.43
2018-08-20T10:42:24.659Z,4.60
2018-08-20T10:44:53.394Z,5.07
2018-08-20T10:47:22.111Z,4.57
2018-08-20T10:49:50.304Z,5.43
2018-08-20T10:52:18.484Z,4.80
2018-08-20T10:54:46.633Z,4.60
2018-08-20T10:57:14.790Z,4.87
2018-08-20T10:59:42.964Z,4.57
2018-08-20T11:02:11.241Z,4.93
2018-08-20T11:04:39.619Z,5.80
2018-08-20T11:07:07.784Z,5.00
2018-08-20T11:09:35.962Z,4.93
2018-08-20T11:12:04.129Z,4.43
2018-08-20T11:14:32.362Z,4.80
2018-08-20T11:17:00.599Z,5.07
2018-08-20T11:19:28.915Z,5.13
2018-08-20T11:21:57.098Z,4.90
2018-08-20T11:24:25.284Z,5.10
2018-08-20T11:26:53.447Z,4.70
2018-08-20T11:29:21.672Z,4.80
2018-08-20T11:31:49.835Z,4.50
2018-08-20T11:34:18.017Z,4.93
2018-08-20T11:36:46.234Z,4.80
2018-08-20T11:39:14.331Z,4.17
2018-08-20T11:41:42.511Z,5.00
2018-08-20T11:44:10.920Z,5.13
2018-08-20T11:46:39.082Z,4.70
2018-08-20T11:49:07.279Z,5.80
2018-08-20T11:51:35.440Z,4.90
2018-08-20T11:54:03.667Z,4.50
2018-08-20T11:56:31.856Z,4.17
2018-08-20T11:59:00.072Z,4.50
2018-08-20T12:01:28.198Z,5.17
2018-08-20T12:03:56.417Z,4.80
2018-08-20T12:06:25.804Z,4.87
2018-08-20T12:08:53.973Z,4.73
2018-08-20T12:11:21.923Z,5.20
2018-08-20T12:13:50.245Z,4.63
2018-08-20T12:16:18.410Z,5.00
2018-08-20T12:18:46.583Z,4.70
2018-08-20T12:21:14.765Z,4.60
2018-08-20T12:23:43.072Z,4.87
2018-08-20T12:26:11.384Z,4.73
2018-08-20T12:28:39.599Z,4.93
2018-08-20T12:31:07.832Z,5.30
2018-08-20T12:33:36.036Z,4.47
2018-08-20T12:36:04.316Z,5.80
2018-08-20T12:38:32.499Z,4.40
2018-08-20T12:41:00.718Z,5.20
2018-08-20T12:43:28.943Z,4.40
2018-08-20T12:45:57.256Z,4.10
2018-08-20T12:48:25.549Z,4.13
2018-08-20T12:50:53.774Z,4.40
2018-08-20T12:53:21.970Z,4.97
2018-08-20T12:55:50.235Z,4.70
2018-08-20T12:58:18.462Z,4.90
2018-08-20T13:00:46.744Z,4.30
2018-08-20T13:03:14.948Z,4.50
2018-08-20T13:05:43.244Z,4.43
2018-08-20T13:08:11.504Z,4.60
2018-08-20T13:10:39.705Z,4.23
2018-08-20T13:13:07.762Z,4.60
2018-08-20T13:15:35.964Z,4.33
2018-08-20T13:18:03.912Z,4.67
2018-08-20T13:20:32.162Z,4.50
2018-08-20T13:23:00.390Z,4.77
2018-08-20T13:25:28.590Z,5.03
2018-08-20T13:27:56.871Z,4.20
2018-08-20T13:30:25.039Z,4.53
2018-08-20T13:32:53.212Z,4.00
2018-08-20T13:35:21.493Z,3.80
2018-08-20T13:37:49.659Z,3.97
2018-08-20T13:40:17.827Z,3.60
2018-08-20T13:42:46.034Z,4.10
2018-08-20T13:45:14.253Z,4.33
2018-08-20T13:47:42.428Z,4.50
2018-08-20T13:50:15.061Z,3.77
2018-08-20T13:52:45.656Z,4.67
2018-08-20T13:55:13.923Z,4.40
2018-08-20T13:57:45.796Z,4.87
2018-08-20T14:00:15.248Z,4.27
2018-08-20T14:02:43.537Z,4.33
2018-08-20T14:05:11.753Z,4.37
2018-08-20T14:08:43.193Z,4.37
2018-08-20T14:11:11.393Z,4.97
2018-08-20T14:13:39.544Z,4.33
2018-08-20T14:16:07.722Z,4.57
2018-08-20T14:18:35.947Z,3.70
2018-08-20T14:21:09.702Z,3.33
2018-08-20T14:23:37.931Z,3.50
2018-08-20T14:26:06.193Z,4.70
2018-08-20T14:28:34.396Z,3.73
2018-08-20T14:31:02.679Z,4.20
2018-08-20T14:33:30.920Z,4.80
2018-08-20T14:35:59.165Z,4.53
2018-08-20T14:38:27.371Z,4.10
2018-08-20T14:40:55.710Z,4.20
2018-08-20T14:43:23.922Z,3.57
2018-08-20T14:45:57.652Z,3.57
2018-08-20T14:48:25.903Z,4.03
2018-08-20T14:50:53.879Z,4.10
2018-08-20T14:53:22.134Z,4.30
2018-08-20T14:55:50.331Z,4.63
2018-08-20T14:58:18.560Z,4.00
2018-08-20T15:00:46.791Z,3.53
2018-08-20T15:03:14.996Z,4.27
2018-08-20T15:05:43.214Z,3.30
2018-08-20T15:08:11.860Z,3.77
2018-08-20T15:10:40.104Z,3.60
2018-08-20T15:13:08.331Z,3.50
2018-08-20T15:15:36.760Z,3.60
2018-08-20T15:18:04.859Z,3.10
2018-08-20T15:20:33.056Z,4.10
2018-08-20T15:23:01.352Z,4.03
2018-08-20T15:25:29.631Z,3.90
2018-08-20T15:27:57.809Z,4.60
2018-08-20T15:30:26.024Z,4.13
2018-08-20T15:32:54.236Z,3.83
2018-08-20T15:35:22.467Z,4.10
2018-08-20T15:37:50.711Z,4.10
2018-08-20T15:40:18.989Z,3.97
2018-08-20T15:42:47.267Z,4.33
2018-08-20T15:45:15.495Z,3.60
2018-08-20T15:47:43.783Z,4.20
2018-08-20T15:50:12.095Z,3.93
2018-08-20T15:52:40.162Z,4.87
2018-08-20T15:55:08.401Z,5.60
2018-08-20T15:57:36.751Z,4.57
2018-08-20T16:00:06.377Z,4.10
2018-08-20T16:02:34.594Z,4.27
2018-08-20T16:05:02.864Z,4.70
2018-08-20T16:07:31.151Z,3.97
2018-08-20T16:09:59.425Z,4.57
2018-08-20T16:12:27.619Z,4.27
2018-08-20T16:14:55.829Z,4.57
2018-08-20T16:17:24.149Z,4.37
2018-08-20T16:19:52.412Z,4.47
2018-08-20T16:22:20.623Z,3.97
2018-08-20T16:24:48.865Z,3.93
2018-08-20T16:27:17.238Z,4.37
2018-08-20T16:29:45.454Z,4.67
2018-08-20T16:32:13.701Z,4.47
2018-08-20T16:34:42.009Z,4.10
2018-08-20T16:37:10.235Z,4.50
2018-08-20T16:39:38.495Z,4.10
2018-08-20T16:42:06.656Z,4.30
2018-08-20T16:44:34.979Z,4.67
2018-08-20T16:47:03.234Z,5.33
2018-08-20T16:49:31.277Z,4.07
2018-08-20T16:51:59.583Z,4.73
2018-08-20T16:54:27.868Z,4.70
2018-08-20T16:56:55.911Z,4.50
2018-08-20T16:59:24.226Z,4.77
2018-08-20T17:01:52.474Z,4.40
2018-08-20T17:04:31.027Z,5.37
2018-08-20T17:07:00.552Z,5.63
2018-08-20T17:09:29.146Z,5.20
2018-08-20T17:11:57.364Z,5.13
2018-08-20T17:14:25.611Z,4.63
2018-08-20T17:16:54.067Z,4.73
2018-08-20T17:19:22.306Z,5.70
2018-08-20T17:21:50.498Z,4.90
2018-08-20T17:24:40.761Z,5.50
2018-08-20T17:27:09.469Z,4.40
2018-08-20T17:29:37.749Z,5.23
2018-08-20T17:32:07.289Z,4.80
2018-08-20T17:34:38.459Z,4.77
2018-08-20T17:37:06.705Z,5.13
2018-08-20T17:39:39.939Z,5.20
2018-08-20T17:42:08.233Z,5.43
2018-08-20T17:44:36.539Z,5.30
2018-08-20T17:47:04.768Z,5.20
2018-08-20T17:49:33.064Z,5.10
2018-08-20T17:52:01.346Z,4.60
2018-08-20T17:54:30.083Z,5.13
2018-08-20T17:56:58.306Z,5.43
2018-08-20T17:59:26.580Z,5.20
2018-08-20T18:01:54.820Z,5.90
2018-08-20T18:04:23.027Z,6.47
2018-08-20T18:06:53.764Z,6.20
2018-08-20T18:09:22.028Z,5.93
2018-08-20T18:11:52.363Z,6.60
2018-08-20T18:14:21.879Z,5.63
2018-08-20T18:16:50.105Z,6.30
2018-08-20T18:19:18.436Z,6.20
2018-08-20T18:21:46.811Z,6.00
2018-08-20T18:24:16.979Z,6.17
2018-08-20T18:26:46.660Z,6.47
2018-08-20T18:29:14.968Z,6.47
2018-08-20T18:31:43.187Z,7.00
2018-08-20T18:34:11.350Z,7.37
2018-08-20T18:36:39.531Z,8.60
2018-08-20T18:39:09.963Z,7.37
2018-08-20T18:42:17.824Z,6.00
2018-08-20T18:44:47.049Z,6.43
2018-08-20T18:47:16.516Z,7.00
2018-08-20T18:49:50.835Z,7.30
2018-08-20T18:52:25.676Z,7.57
2018-08-20T18:54:55.146Z,6.80
2018-08-20T18:57:30.478Z,7.40
2018-08-20T18:59:59.648Z,7.50
2018-08-20T19:02:38.053Z,7.87
2018-08-20T19:05:08.467Z,8.07
2018-08-20T19:07:36.731Z,7.40
2018-08-20T19:10:07.033Z,8.20
2018-08-20T19:12:35.373Z,8.30
2018-08-20T19:15:15.420Z,7.20
2018-08-20T19:17:43.583Z,7.40
2018-08-20T19:20:11.768Z,8.33
2018-08-20T19:22:39.920Z,8.47
2018-08-20T19:25:08.149Z,7.37
2018-08-20T19:27:36.382Z,7.83
2018-08-20T19:30:12.649Z,8.13
2018-08-20T19:32:40.886Z,7.73
2018-08-20T19:35:09.140Z,7.97
2018-08-20T19:37:37.367Z,8.67
2018-08-20T19:40:06.364Z,7.67
2018-08-20T19:42:34.962Z,8.30
2018-08-20T19:45:05.173Z,7.70
2018-08-20T19:47:33.772Z,7.90
2018-08-20T19:50:09.239Z,8.30
2018-08-20T19:52:37.456Z,8.00
2018-08-20T19:55:07.414Z,8.00
2018-08-20T19:57:35.702Z,8.60
2018-08-20T20:00:06.999Z,8.70
2018-08-20T20:02:35.207Z,8.10
2018-08-20T20:05:05.026Z,9.17
2018-08-20T20:07:34.490Z,8.63
2018-08-20T20:10:07.692Z,9.10
2018-08-20T20:12:40.122Z,9.27
2018-08-20T20:15:08.514Z,8.60
2018-08-20T20:17:36.825Z,8.30
2018-08-20T20:20:05.276Z,9.20
2018-08-20T20:22:33.550Z,9.70
2018-08-20T20:25:01.894Z,9.00
2018-08-20T20:27:30.296Z,9.37
2018-08-20T20:29:58.619Z,9.43
2018-08-20T20:32:26.905Z,8.90
2018-08-20T20:34:55.296Z,9.97
2018-08-20T20:37:23.556Z,9.70
2018-08-20T20:39:56.971Z,9.63
2018-08-20T20:42:25.335Z,8.93
2018-08-20T20:44:53.736Z,8.60
2018-08-20T20:47:22.152Z,9.73
2018-08-20T20:49:50.465Z,8.03
2018-08-20T20:52:18.704Z,8.63
2018-08-20T20:54:46.898Z,8.90
2018-08-20T20:57:15.097Z,8.13
2018-08-20T20:59:43.251Z,8.30
2018-08-20T21:02:11.440Z,9.60
2018-08-20T21:04:39.774Z,8.80
2018-08-20T21:07:07.928Z,9.00
2018-08-20T21:09:41.434Z,8.30
2018-08-20T21:12:09.607Z,8.47
2018-08-20T21:14:37.837Z,9.77
2018-08-20T21:17:05.984Z,9.43
2018-08-20T21:19:34.758Z,8.90
2018-08-20T21:22:05.378Z,9.53
2018-08-20T21:24:33.568Z,9.37
2018-08-20T21:27:01.781Z,8.27
2018-08-20T21:29:30.327Z,8.67
2018-08-20T21:31:58.476Z,8.40
2018-08-20T21:34:29.527Z,8.47
2018-08-20T21:36:57.701Z,8.90
2018-08-20T21:39:25.868Z,9.10
2018-08-20T21:41:53.948Z,9.20
2018-08-20T21:44:22.274Z,9.30
2018-08-20T21:46:50.491Z,8.50
2018-08-20T21:49:18.718Z,8.90
2018-08-20T21:51:52.378Z,9.37
2018-08-20T21:54:26.107Z,8.93
2018-08-20T21:59:28.921Z,9.07
2018-08-20T22:01:57.127Z,8.90
2018-08-20T22:04:25.367Z,9.20
2018-08-20T22:06:53.573Z,9.67
2018-08-20T22:09:21.876Z,9.10
2018-08-20T22:11:53.546Z,9.13
2018-08-20T22:14:21.792Z,8.77
2018-08-20T22:16:50.035Z,9.17
2018-08-20T22:19:18.331Z,10.17
2018-08-20T22:21:46.567Z,9.73
2018-08-20T22:24:14.784Z,8.93
2018-08-20T22:26:50.086Z,9.13
2018-08-20T22:29:18.867Z,9.90
2018-08-20T22:31:52.451Z,9.10
2018-08-20T22:34:20.728Z,10.37
2018-08-20T22:36:53.444Z,8.63
2018-08-20T22:39:21.747Z,9.43
2018-08-20T22:41:49.695Z,9.50
2018-08-20T22:44:17.975Z,8.67
2018-08-20T22:46:46.183Z,11.07
2018-08-20T22:49:14.408Z,8.90
2018-08-20T22:51:42.656Z,9.60
2018-08-20T22:54:10.888Z,10.00
2018-08-20T22:56:39.163Z,9.47
2018-08-20T22:59:11.067Z,9.60
2018-08-20T23:01:39.375Z,9.27
2018-08-20T23:04:08.060Z,9.10
2018-08-20T23:06:36.364Z,9.70
2018-08-20T23:09:21.315Z,10.20
2018-08-20T23:11:49.548Z,10.60
2018-08-20T23:14:17.787Z,10.03
2018-08-20T23:16:48.652Z,9.10
2018-08-20T23:19:16.932Z,9.50
2018-08-20T23:21:46.260Z,10.47
2018-08-20T23:24:15.259Z,10.10
2018-08-20T23:26:43.511Z,9.27
2018-08-20T23:29:12.005Z,10.30
2018-08-20T23:31:40.578Z,10.00
2018-08-20T23:34:10.097Z,10.70
2018-08-20T23:36:38.474Z,10.80
2018-08-20T23:39:08.936Z,9.63
2018-08-20T23:41:37.239Z,9.73
2018-08-20T23:44:05.459Z,10.50
2018-08-20T23:46:38.519Z,10.93
2018-08-20T23:49:06.547Z,9.70
2018-08-20T23:51:34.907Z,11.03
2018-08-20T23:54:03.338Z,9.30
2018-08-20T23:56:31.585Z,10.03
2018-08-20T23:59:00.059Z,10.37
